Terminal Aerodrome Forecast
Issued by NWS

Home | Current Version | Previous Version | Text Only | Print | Product List | Glossary On
Versions: 1 2 3 4 5 6 7 8 9 10 11 12 13 14 15
000
FTAK31 PAFA 251132
TAFABT
TAF
PABT 251132Z 2512/2612 VRB03KT P6SM -SHSN BKN013 OVC019
     FM251300 VRB04KT 6SM -SHSN BR OVC015
     FM251800 VRB04KT 2SM -SHSN BR SCT015 BKN050
     FM260400 VRB04KT P6SM SCT050 BKN100=

USA.gov is the U.S. government's official web portal to all federal, state and local government web resources and services.